Time;durP1;ratioP1;P1;durP2;ratioP2;P2;SDS_P1;SDS_P2;PMS_P1;PMS_P2;Temp;Humidity;BMP_temperature;BMP_pressure;BME280_temperature;BME280_humidity;BME280_pressure;Samples;Min_cycle;Max_cycle;Signal;HPM_P1;HPM_P2
2021/10/25 00:02:01;;;;;;;;;;;;;;;;;;5028752;28;19925;-59
2021/10/25 00:04:28;;;;;;;;;;;;;;;;;;5027543;28;19945;-58
2021/10/25 00:06:55;;;;;;;;;;;;;;;;;;5020859;28;19926;-58
2021/10/25 00:09:22;;;;;;;;;;;;;;;;;;5027288;28;19925;-60
2021/10/25 00:11:49;;;;;;;;;;;;;;;;;;5028940;28;19929;-60
2021/10/25 00:14:16;;;;;;;;;;;;;;;;;;5031688;28;20182;-60
2021/10/25 00:16:43;;;;;;;;;;;;;;;;;;5029534;28;19929;-59
2021/10/25 00:19:10;;;;;;;;;;;;;;;;;;5024352;28;20307;-58
2021/10/25 00:21:37;;;;;;;;;;;;;;;;;;5032585;28;19925;-60
2021/10/25 00:24:04;;;;;;;;;;;;;;;;;;5028539;28;19932;-60
2021/10/25 00:26:31;;;;;;;;;;;;;;;;;;5021982;28;19932;-58
2021/10/25 00:28:58;;;;;;;;;;;;;;;;;;5034033;28;19932;-60
2021/10/25 00:31:25;;;;;;;;;;;;;;;;;;5022310;28;20211;-59
2021/10/25 00:33:52;;;;;;;;;;;;;;;;;;5028426;28;19938;-60
2021/10/25 00:36:19;;;;;;;;;;;;;;;;;;5033426;28;20416;-60
2021/10/25 00:38:46;;;;;;;;;;;;;;;;;;5027037;28;19925;-59
2021/10/25 00:41:13;;;;;;;;;;;;;;;;;;5032487;28;19931;-60
2021/10/25 00:43:40;;;;;;;;;;;;;;;;;;5030249;28;19931;-63
2021/10/25 00:46:08;;;;;;;;;;;;;;;;;;5023646;28;19925;-60
2021/10/25 00:48:35;;;;;;;;;;;;;;;;;;5025296;28;19925;-59
2021/10/25 00:51:02;;;;;;;;;;;;;;;;;;5023596;28;19925;-59
2021/10/25 00:53:29;;;;;;;;;;;;;;;;;;5040497;28;19925;-59
2021/10/25 00:55:56;;;;;;;;;;;;;;;;;;5028084;28;19932;-59
2021/10/25 00:58:23;;;;;;;;;;;;;;;;;;5027096;28;19976;-60
2021/10/25 01:00:50;;;;;;;;;;;;;;;;;;5022371;28;19936;-60
2021/10/25 01:03:17;;;;;;;;;;;;;;;;;;5027909;28;19940;-60
2021/10/25 01:05:44;;;;;;;;;;;;;;;;;;5025254;28;19932;-60
2021/10/25 01:08:11;;;;;;;;;;;;;;;;;;5034643;28;19933;-60
2021/10/25 01:10:38;;;;;;;;;;;;;;;;;;5030529;28;20332;-60
2021/10/25 01:13:05;;;;;;;;;;;;;;;;;;5025127;28;19925;-60
2021/10/25 01:15:32;;;;;;;;;;;;;;;;;;5030306;28;19925;-60
2021/10/25 01:17:59;;;;;;;;;;;;;;;;;;5025958;28;19929;-60
2021/10/25 01:20:26;;;;;;;;;;;;;;;;;;5015486;28;19926;-60
2021/10/25 01:22:54;;;;;;;;;;;;;;;;;;5028317;28;20305;-60
2021/10/25 01:25:21;;;;;;;;;;;;;;;;;;5031566;28;19925;-61
2021/10/25 01:27:48;;;;;;;;;;;;;;;;;;5029583;28;19933;-60
2021/10/25 01:30:16;;;;;;;;;;;;;;;;;;5030653;28;20035;-60
2021/10/25 01:32:43;;;;;;;;;;;;;;;;;;5030411;28;19929;-60
2021/10/25 01:35:10;;;;;;;;;;;;;;;;;;5037339;28;19929;-60
2021/10/25 01:37:37;;;;;;;;;;;;;;;;;;5025657;28;19925;-59
2021/10/25 01:40:04;;;;;;;;;;;;;;;;;;5029247;28;19932;-61
2021/10/25 01:42:31;;;;;;;;;;;;;;;;;;5022492;28;20384;-59
2021/10/25 01:44:59;;;;;;;;;;;;;;;;;;5028940;28;19925;-59
2021/10/25 01:47:26;;;;;;;;;;;;;;;;;;5046080;28;19975;-59
2021/10/25 01:49:54;;;;;;;;;;;;;;;;;;5022636;28;19972;-60
2021/10/25 01:52:21;;;;;;;;;;;;;;;;;;5021103;28;19953;-58
2021/10/25 01:54:48;;;;;;;;;;;;;;;;;;5028744;28;19925;-58
2021/10/25 01:57:15;;;;;;;;;;;;;;;;;;5033190;28;20381;-59
2021/10/25 01:59:42;;;;;;;;;;;;;;;;;;5038153;28;20285;-59
2021/10/25 02:02:09;;;;;;;;;;;;;;;;;;5028122;28;19925;-60
2021/10/25 02:04:37;;;;;;;;;;;;;;;;;;5030058;28;19936;-60
2021/10/25 02:07:03;;;;;;;;;;;;;;;;;;5034374;28;20051;-61
2021/10/25 02:09:30;;;;;;;;;;;;;;;;;;5041082;28;20415;-60
2021/10/25 02:11:57;;;;;;;;;;;;;;;;;;5028390;28;20293;-60
2021/10/25 02:14:24;;;;;;;;;;;;;;;;;;5041289;28;19926;-60
2021/10/25 02:16:51;;;;;;;;;;;;;;;;;;5025391;28;19926;-59
2021/10/25 02:19:18;;;;;;;;;;;;;;;;;;5039497;28;19933;-56
2021/10/25 02:21:46;;;;;;;;;;;;;;;;;;5026198;28;19933;-54
2021/10/25 02:24:13;;;;;;;;;;;;;;;;;;5030297;28;19979;-60
2021/10/25 02:26:40;;;;;;;;;;;;;;;;;;5039155;28;19936;-58
2021/10/25 02:29:07;;;;;;;;;;;;;;;;;;5019766;28;19926;-58
2021/10/25 02:31:34;;;;;;;;;;;;;;;;;;5025246;28;19933;-57
2021/10/25 02:34:01;;;;;;;;;;;;;;;;;;5022430;28;19925;-60
2021/10/25 02:36:28;;;;;;;;;;;;;;;;;;5034702;28;19945;-60
2021/10/25 02:38:55;;;;;;;;;;;;;;;;;;5020392;28;19933;-61
2021/10/25 02:41:22;;;;;;;;;;;;;;;;;;5034560;28;19931;-61
2021/10/25 02:43:48;;;;;;;;;;;;;;;;;;5029705;28;19925;-60
2021/10/25 02:46:15;;;;;;;;;;;;;;;;;;5032965;28;20404;-61
2021/10/25 02:48:43;;;;;;;;;;;;;;;;;;5041587;28;20016;-59
2021/10/25 02:51:10;;;;;;;;;;;;;;;;;;5031125;28;20036;-60
2021/10/25 02:53:37;;;;;;;;;;;;;;;;;;5029274;28;19925;-61
2021/10/25 02:56:04;;;;;;;;;;;;;;;;;;5035545;28;19935;-63
2021/10/25 02:58:31;;;;;;;;;;;;;;;;;;5036694;28;19936;-61
2021/10/25 03:00:59;;;;;;;;;;;;;;;;;;5037253;28;19925;-60
2021/10/25 03:03:25;;;;;;;;;;;;;;;;;;5028064;28;20027;-61
2021/10/25 03:05:53;;;;;;;;;;;;;;;;;;5029666;28;19948;-59
2021/10/25 03:08:20;;;;;;;;;;;;;;;;;;5034667;28;19933;-61
2021/10/25 03:10:47;;;;;;;;;;;;;;;;;;5034163;28;19932;-60
2021/10/25 03:13:14;;;;;;;;;;;;;;;;;;5027748;28;19925;-61
2021/10/25 03:15:41;;;;;;;;;;;;;;;;;;5039189;28;20403;-60
2021/10/25 03:18:08;;;;;;;;;;;;;;;;;;5028198;28;19929;-61
2021/10/25 03:20:35;;;;;;;;;;;;;;;;;;5027771;28;19932;-60
2021/10/25 03:23:02;;;;;;;;;;;;;;;;;;5030640;28;19935;-59
2021/10/25 03:25:29;;;;;;;;;;;;;;;;;;5033829;28;19951;-60
2021/10/25 03:27:57;;;;;;;;;;;;;;;;;;5030711;28;19936;-59
2021/10/25 03:30:24;;;;;;;;;;;;;;;;;;5032735;28;19925;-59
2021/10/25 03:32:51;;;;;;;;;;;;;;;;;;5028814;28;20347;-60
2021/10/25 03:35:18;;;;;;;;;;;;;;;;;;5033904;28;19925;-60
2021/10/25 03:37:45;;;;;;;;;;;;;;;;;;5032621;28;19976;-58
2021/10/25 03:40:12;;;;;;;;;;;;;;;;;;5032706;28;19925;-59
2021/10/25 03:42:44;;;;;;;;;;;;;;;;;;5033214;28;19935;-60
2021/10/25 03:45:18;;;;;;;;;;;;;;;;;;5038324;28;19933;-60
2021/10/25 03:47:49;;;;;;;;;;;;;;;;;;5033414;28;19952;-60
2021/10/25 03:50:18;;;;;;;;;;;;;;;;;;5030912;28;19931;-61
2021/10/25 03:52:50;;;;;;;;;;;;;;;;;;5027773;28;19932;-61
2021/10/25 03:55:22;;;;;;;;;;;;;;;;;;5030970;28;19999;-61
2021/10/25 03:58:07;;;;;;;;;;;;;;;;;;5034353;28;19925;-61
2021/10/25 04:03:46;;;;;;;;;;;;;;;;;;5022918;28;19921;-61
2021/10/25 04:25:52;;;;;;;;;;;;;;;;;;5028444;28;19944;-61
2021/10/25 04:28:21;;;;;;;;;;;;;;;;;;5037217;28;20316;-61
2021/10/25 04:30:54;;;;;;;;;;;;;;;;;;5019780;28;19925;-61
2021/10/25 04:33:21;;;;;;;;;;;;;;;;;;5045598;28;19933;-61
2021/10/25 04:35:48;;;;;;;;;;;;;;;;;;5030434;28;20019;-60
2021/10/25 04:38:15;;;;;;;;;;;;;;;;;;5050374;28;19931;-61
2021/10/25 04:40:42;;;;;;;;;;;;;;;;;;5037259;28;20382;-61
2021/10/25 04:43:09;;;;;;;;;;;;;;;;;;5029092;28;20289;-62
2021/10/25 04:45:36;;;;;;;;;;;;;;;;;;5036249;28;19925;-60
2021/10/25 04:48:03;;;;;;;;;;;;;;;;;;5033437;28;19925;-61
2021/10/25 04:50:30;;;;;;;;;;;;;;;;;;5026886;28;20473;-61
2021/10/25 04:52:56;;;;;;;;;;;;;;;;;;5017087;28;20278;-61
2021/10/25 04:55:23;;;;;;;;;;;;;;;;;;5032887;28;19972;-61
2021/10/25 04:57:50;;;;;;;;;;;;;;;;;;5032599;28;19925;-61
2021/10/25 05:00:17;;;;;;;;;;;;;;;;;;5031829;28;19925;-61
2021/10/25 05:02:44;;;;;;;;;;;;;;;;;;5019993;28;19925;-59
2021/10/25 05:05:11;;;;;;;;;;;;;;;;;;5026091;28;19925;-59
2021/10/25 05:07:38;;;;;;;;;;;;;;;;;;5032173;28;19932;-57
2021/10/25 05:10:05;;;;;;;;;;;;;;;;;;5032762;28;19925;-59
2021/10/25 05:12:32;;;;;;;;;;;;;;;;;;5031624;28;19931;-59
2021/10/25 05:14:59;;;;;;;;;;;;;;;;;;5032316;28;19932;-60
2021/10/25 05:17:26;;;;;;;;;;;;;;;;;;5021780;28;20300;-61
2021/10/25 05:19:53;;;;;;;;;;;;;;;;;;5031833;28;19933;-60
2021/10/25 05:22:20;;;;;;;;;;;;;;;;;;5021075;28;19934;-60
2021/10/25 05:24:47;;;;;;;;;;;;;;;;;;5030366;28;19925;-60
2021/10/25 05:27:15;;;;;;;;;;;;;;;;;;5047805;28;19925;-60
2021/10/25 05:29:42;;;;;;;;;;;;;;;;;;5023131;28;19929;-61
2021/10/25 05:32:10;;;;;;;;;;;;;;;;;;5024420;28;19926;-60
2021/10/25 05:34:37;;;;;;;;;;;;;;;;;;5036826;28;19925;-59
2021/10/25 05:37:04;;;;;;;;;;;;;;;;;;5036372;28;19992;-60
2021/10/25 05:39:31;;;;;;;;;;;;;;;;;;5030035;28;19936;-58
2021/10/25 05:42:00;;;;;;;;;;;;;;;;;;5032934;28;19925;-59
2021/10/25 05:44:29;;;;;;;;;;;;;;;;;;5024415;28;19925;-59
2021/10/25 05:46:56;;;;;;;;;;;;;;;;;;5039002;28;19925;-60
2021/10/25 05:49:23;;;;;;;;;;;;;;;;;;5050012;28;19972;-59
2021/10/25 05:51:50;;;;;;;;;;;;;;;;;;5040262;28;19929;-59
2021/10/25 05:54:17;;;;;;;;;;;;;;;;;;5025088;28;20383;-59
2021/10/25 05:56:46;;;;;;;;;;;;;;;;;;5033965;28;20249;-59
2021/10/25 05:59:13;;;;;;;;;;;;;;;;;;5039286;28;19969;-60
2021/10/25 06:01:42;;;;;;;;;;;;;;;;;;5035402;28;19972;-59
2021/10/25 06:04:11;;;;;;;;;;;;;;;;;;5030740;28;20308;-59
2021/10/25 06:06:38;;;;;;;;;;;;;;;;;;5026579;28;19931;-60
2021/10/25 06:09:05;;;;;;;;;;;;;;;;;;5029635;28;19996;-58
2021/10/25 06:11:33;;;;;;;;;;;;;;;;;;5028448;28;19925;-60
2021/10/25 06:14:02;;;;;;;;;;;;;;;;;;5034998;28;19936;-60
2021/10/25 06:16:37;;;;;;;;;;;;;;;;;;5029660;28;19925;-59
2021/10/25 06:19:04;;;;;;;;;;;;;;;;;;5030944;28;19934;-60
2021/10/25 06:21:31;;;;;;;;;;;;;;;;;;5029713;28;19928;-59
2021/10/25 06:23:59;;;;;;;;;;;;;;;;;;5025404;28;19952;-61
2021/10/25 06:26:27;;;;;;;;;;;;;;;;;;5022117;28;19929;-60
2021/10/25 06:28:53;;;;;;;;;;;;;;;;;;5032986;28;20020;-59
2021/10/25 06:31:21;;;;;;;;;;;;;;;;;;5040932;28;19925;-60
2021/10/25 06:33:48;;;;;;;;;;;;;;;;;;5045120;28;19925;-60
2021/10/25 06:36:18;;;;;;;;;;;;;;;;;;5025358;28;19968;-60
2021/10/25 06:38:52;;;;;;;;;;;;;;;;;;5030986;28;19925;-58
2021/10/25 06:41:20;;;;;;;;;;;;;;;;;;5028464;28;19971;-60
2021/10/25 06:43:47;;;;;;;;;;;;;;;;;;5026088;28;20004;-60
2021/10/25 06:46:14;;;;;;;;;;;;;;;;;;5030749;28;19925;-60
2021/10/25 06:48:41;;;;;;;;;;;;;;;;;;5034992;28;20112;-59
2021/10/25 06:51:08;;;;;;;;;;;;;;;;;;5033534;28;19925;-60
2021/10/25 06:53:35;;;;;;;;;;;;;;;;;;5043451;28;20377;-60
2021/10/25 06:56:02;;;;;;;;;;;;;;;;;;5030390;28;19925;-60
2021/10/25 06:58:29;;;;;;;;;;;;;;;;;;5032271;28;19926;-60
2021/10/25 07:00:58;;;;;;;;;;;;;;;;;;5032335;28;19925;-60
2021/10/25 07:03:25;;;;;;;;;;;;;;;;;;5037803;28;20328;-60
2021/10/25 07:05:52;;;;;;;;;;;;;;;;;;5028549;28;19929;-60
2021/10/25 07:08:19;;;;;;;;;;;;;;;;;;5030692;28;19925;-60
2021/10/25 07:10:46;;;;;;;;;;;;;;;;;;5036984;28;20004;-58
2021/10/25 07:13:14;;;;;;;;;;;;;;;;;;5032759;28;20377;-60
2021/10/25 07:15:46;;;;;;;;;;;;;;;;;;5035650;28;19933;-60
2021/10/25 07:18:17;;;;;;;;;;;;;;;;;;5026936;28;19925;-59
2021/10/25 07:21:03;;;;;;;;;;;;;;;;;;5028496;28;19932;-60
2021/10/25 08:02:18;;;;;;;;;;;;;;;;;;5022035;28;19932;-59
2021/10/25 08:07:34;;;;;;;;;;;;;;;;;;5023659;28;20012;-60
2021/10/25 08:10:06;;;;;;;;;;;;;;;;;;5025821;28;19925;-60
2021/10/25 08:12:35;;;;;;;;;;;;;;;;;;5025049;28;19975;-60
2021/10/25 08:15:05;;;;;;;;;;;;;;;;;;5029807;28;19927;-60
2021/10/25 08:17:41;;;;;;;;;;;;;;;;;;5027082;28;19982;-60
2021/10/25 08:20:08;;;;;;;;;;;;;;;;;;5031204;28;20295;-60
2021/10/25 08:22:37;;;;;;;;;;;;;;;;;;5029589;28;20312;-60
2021/10/25 08:25:04;;;;;;;;;;;;;;;;;;5026349;28;19925;-60
2021/10/25 08:27:31;;;;;;;;;;;;;;;;;;5031245;28;20423;-60
2021/10/25 08:29:58;;;;;;;;;;;;;;;;;;5031034;28;20386;-59
2021/10/25 08:32:44;;;;;;;;;;;;;;;;;;5026549;28;20373;-59
2021/10/25 08:40:50;;;;;;;;;;;;;;;;;;5006081;28;19921;-59
2021/10/25 08:43:17;;;;;;;;;;;;;;;;;;5022519;28;19933;-58
2021/10/25 08:45:47;;;;;;;;;;;;;;;;;;5023655;28;19940;-59
2021/10/25 08:48:14;;;;;;;;;;;;;;;;;;5025755;28;19925;-59
2021/10/25 08:50:41;;;;;;;;;;;;;;;;;;5028932;28;20388;-58
2021/10/25 08:53:09;;;;;;;;;;;;;;;;;;5028774;28;19926;-59
2021/10/25 08:55:36;;;;;;;;;;;;;;;;;;5023441;28;20004;-58
2021/10/25 08:58:05;;;;;;;;;;;;;;;;;;5029493;28;19980;-60
2021/10/25 09:00:32;;;;;;;;;;;;;;;;;;5028868;28;19925;-60
2021/10/25 09:02:59;;;;;;;;;;;;;;;;;;5028762;28;19925;-60
2021/10/25 09:05:25;;;;;;;;;;;;;;;;;;5028129;28;20356;-60
2021/10/25 09:07:53;;;;;;;;;;;;;;;;;;5027452;28;19928;-60
2021/10/25 09:10:19;;;;;;;;;;;;;;;;;;5028966;28;19940;-60
2021/10/25 09:12:49;;;;;;;;;;;;;;;;;;5028041;28;19937;-59
2021/10/25 09:15:16;;;;;;;;;;;;;;;;;;5019838;28;20396;-61
2021/10/25 09:17:43;;;;;;;;;;;;;;;;;;5022725;28;20092;-60
2021/10/25 09:20:11;;;;;;;;;;;;;;;;;;5026464;28;19925;-59
2021/10/25 09:22:38;;;;;;;;;;;;;;;;;;5021788;28;19929;-60
2021/10/25 09:25:05;;;;;;;;;;;;;;;;;;5022833;28;19935;-60
2021/10/25 09:27:32;;;;;;;;;;;;;;;;;;5022859;28;19932;-61
2021/10/25 09:30:03;;;;;;;;;;;;;;;;;;5030033;28;20011;-61
2021/10/25 09:32:30;;;;;;;;;;;;;;;;;;5025823;28;19940;-61
2021/10/25 09:34:57;;;;;;;;;;;;;;;;;;5024147;28;19925;-60
2021/10/25 09:37:29;;;;;;;;;;;;;;;;;;5026153;28;19932;-61
2021/10/25 09:39:58;;;;;;;;;;;;;;;;;;5024452;28;19925;-60
2021/10/25 09:50:41;;;;;;;;;;;;;;;;;;5044412;28;19919;-68
2021/10/25 09:53:09;;;;;;;;;;;;;;;;;;5043196;28;19975;-68
2021/10/25 09:55:36;;;;;;;;;;;;;;;;;;5035036;28;19925;-68
2021/10/25 09:58:10;;;;;;;;;;;;;;;;;;5033689;28;19925;-69
2021/10/25 10:00:37;;;;;;;;;;;;;;;;;;5029757;28;19933;-69
2021/10/25 10:03:04;;;;;;;;;;;;;;;;;;5034822;28;19924;-68
2021/10/25 10:05:36;;;;;;;;;;;;;;;;;;5033859;28;20392;-70
2021/10/25 10:08:03;;;;;;;;;;;;;;;;;;5025600;28;19933;-69
2021/10/25 10:10:30;;;;;;;;;;;;;;;;;;5030549;28;20393;-69
2021/10/25 10:12:57;;;;;;;;;;;;;;;;;;5024856;28;19925;-69
2021/10/25 10:15:26;;;;;;;;;;;34.60;44.90;;;;;;5030721;28;19931;-69
2021/10/25 10:17:53;;;;;;;;;;;34.90;44.60;;;;;;5026857;28;19925;-70
2021/10/25 10:20:24;;;;;;;;;;;35.10;42.90;;;;;;5025292;28;19925;-70
2021/10/25 10:22:52;;;;;;;;;;;33.40;43.60;;;;;;5026275;28;19932;-70
2021/10/25 10:25:26;;;;;;;;;;;34.50;44.00;;;;;;5025737;28;19936;-69
2021/10/25 10:27:57;;;;;;;;;;;35.10;42.10;;;;;;5027423;28;19932;-70
2021/10/25 10:30:25;;;;;;;;;;;34.30;42.60;;;;;;5028416;28;19933;-69
2021/10/25 10:32:58;;;;;;;;;;;32.50;44.50;;;;;;5029832;28;19925;-69
2021/10/25 10:35:25;;;;;;;;;;;;;;;;;;5031087;28;20373;-70
2021/10/25 10:37:52;;;;;;;;;;;;;;;;;;5031206;28;19935;-70
2021/10/25 10:40:19;;;;;;;;;;;;;;;;;;5022999;28;19933;-70
2021/10/25 10:42:46;;;;;;;;;;;;;;;;;;5022234;28;19926;-70
2021/10/25 10:45:13;;;;;;;;;;;;;;;;;;5028266;28;19948;-69
2021/10/25 10:47:44;;;;;;;;;;;;;;;;;;5019356;28;19929;-69
2021/10/25 10:50:11;;;;;;;;;;;;;;;;;;5025440;28;19979;-70
2021/10/25 10:52:43;;;;;;;;;;;;;;;;;;5027650;28;19933;-69
2021/10/25 10:55:10;;;;;;;;;;;;;;;;;;5028048;28;20084;-69
2021/10/25 11:00:24;;;;;;;;;;;;;;;;;;5013647;28;19928;-69
2021/10/25 11:02:51;;;;;;;;;;;;;;;;;;5025399;28;19925;-69
2021/10/25 11:05:18;;;;;;;;;;;;;;;;;;5026757;28;20464;-69
2021/10/25 11:07:45;;;;;;;;;;;;;;;;;;5027587;28;19925;-69
2021/10/25 11:10:12;;;;;;;;;;;;;;;;;;5036209;28;20043;-69
2021/10/25 11:12:44;;;;;;;;;;;;;;;;;;5035377;28;19994;-70
2021/10/25 11:15:15;;;;;;;;;;;;;;;;;;5028933;28;20051;-69
2021/10/25 11:17:42;;;;;;;;;;;;;;;;;;5024457;28;19929;-69
2021/10/25 11:20:10;;;;;;;;;;;;;;;;;;5024556;28;19925;-69
2021/10/25 11:22:38;;;;;;;;;;;;;;;;;;5023207;28;20310;-69
2021/10/25 11:25:06;;;;;;;;;;;;;;;;;;5015976;28;19925;-69
2021/10/25 11:27:35;;;;;;;;;;;;;;;;;;5029293;28;20305;-69
2021/10/25 11:30:03;;;;;;;;;;;;;;;;;;5023703;28;19929;-71
2021/10/25 11:32:29;;;;;;;;;;;;;;;;;;5027648;28;19929;-70
2021/10/25 11:34:56;;;;;;;;;;;;;;;;;;5032893;28;19933;-71
2021/10/25 11:37:24;;;;;;;;;;;;;;;;;;5026191;28;19941;-69
2021/10/25 11:39:52;;;;;;;;;;;;;;;;;;5027660;28;19940;-71
2021/10/25 11:42:19;;;;;;;;;;;;;;;;;;5026522;28;19932;-69
2021/10/25 11:44:46;;;;;;;;;;;;;;;;;;5025579;28;19932;-71
2021/10/25 11:47:13;;;;;;;;;;;;;;;;;;5028048;28;19925;-69
2021/10/25 11:49:40;;;;;;;;;;;;;;;;;;5021225;28;19925;-70
2021/10/25 11:52:07;;;;;;;;;;;;;;;;;;5029383;28;19925;-70
2021/10/25 11:54:34;;;;;;;;;;;;;;;;;;5023708;28;19929;-69
2021/10/25 11:57:01;;;;;;;;;;;;;;;;;;5025244;28;20012;-69
2021/10/25 11:59:28;;;;;;;;;;;;;;;;;;5033495;28;19932;-71
2021/10/25 12:01:55;;;;;;;;;;;;;;;;;;5036444;28;19932;-70
2021/10/25 12:04:22;;;;;;;;;;;;;;;;;;5029842;28;19932;-71
2021/10/25 12:06:49;;;;;;;;;;;;;;;;;;5030064;28;20411;-70
2021/10/25 12:09:16;;;;;;;;;;;;;;;;;;5030365;28;19925;-72
2021/10/25 12:11:54;;;;;;;;;;;;;;;;;;5028597;28;19933;-72
2021/10/25 12:14:25;;;;;;;;;;;;;;;;;;5026281;28;19955;-71
2021/10/25 12:16:52;;;;;;;;;;;;;;;;;;5029489;28;20331;-71
2021/10/25 12:19:19;;;;;;;;;;;;;;;;;;5028293;28;19975;-71
2021/10/25 12:21:46;;;;;;;;;;;;;;;;;;5031538;28;19926;-71
2021/10/25 12:24:13;;;;;;;;;;;;;;;;;;5019253;28;19925;-70
2021/10/25 12:26:41;;;;;;;;;;;;;;;;;;5017937;28;20011;-70
2021/10/25 12:29:08;;;;;;;;;;;;;;;;;;5027710;28;20393;-70
2021/10/25 12:31:35;;;;;;;;;;;;;;;;;;5025916;28;20328;-72
2021/10/25 12:34:02;;;;;;;;;;;;;;;;;;5021654;28;20349;-70
2021/10/25 12:36:29;;;;;;;;;;;;;;;;;;5027200;28;19929;-71
2021/10/25 12:38:56;;;;;;;;;;;;;;;;;;5027422;28;20008;-69
2021/10/25 12:41:23;;;;;;;;;;;;;;;;;;5024701;28;20364;-71
2021/10/25 12:43:50;;;;;;;;;;;;;;;;;;5027975;28;20305;-71
2021/10/25 12:46:19;;;;;;;;;;;;;;;;;;5029330;28;20351;-71
2021/10/25 12:48:46;;;;;;;;;;;;;;;;;;5024295;28;19940;-70
2021/10/25 12:51:13;;;;;;;;;;;;;;;;;;5025571;28;20597;-70
2021/10/25 12:53:40;;;;;;;;;;;;;;;;;;5026127;28;20385;-70
2021/10/25 12:56:07;;;;;;;;;;;;;;;;;;5029116;28;19931;-70
2021/10/25 12:58:34;;;;;;;;;;;;;;;;;;5026626;28;19948;-71
2021/10/25 13:01:01;;;;;;;;;;;;;;;;;;5027032;28;20027;-72
2021/10/25 13:03:27;;;;;;;;;;;;;;;;;;5028443;28;19935;-72
2021/10/25 13:05:54;;;;;;;;;;;;;;;;;;5027494;28;19944;-70
2021/10/25 13:08:21;;;;;;;;;;;;;;;;;;5025725;28;20568;-71
2021/10/25 13:10:48;;;;;;;;;;;;;;;;;;5028584;28;19963;-71
2021/10/25 13:13:16;;;;;;;;;;;;;;;;;;5028064;28;19936;-71
2021/10/25 13:15:43;;;;;;;;;;;;;;;;;;5023437;28;19925;-72
2021/10/25 13:18:10;;;;;;;;;;;;;;;;;;5026538;28;20464;-71
2021/10/25 13:20:37;;;;;;;;;;;;;;;;;;5028143;28;19925;-70
2021/10/25 13:23:04;;;;;;;;;;;;;;;;;;5028372;28;19925;-70
2021/10/25 13:25:31;;;;;;;;;;;;;;;;;;5018454;28;19929;-70
2021/10/25 13:27:59;;;;;;;;;;;;;;;;;;5024447;28;19976;-72
2021/10/25 13:30:26;;;;;;;;;;;;;;;;;;5028131;28;19925;-70
2021/10/25 13:32:53;;;;;;;;;;;;;;;;;;5029961;28;19944;-71
2021/10/25 13:35:20;;;;;;;;;;;;;;;;;;5027278;28;19925;-71
2021/10/25 13:37:51;;;;;;;;;;;;;;;;;;5026777;28;19925;-71
2021/10/25 13:40:18;;;;;;;;;;;;;;;;;;5021277;28;19987;-70
2021/10/25 13:42:45;;;;;;;;;;;;;;;;;;5025138;28;19932;-71
2021/10/25 13:45:12;;;;;;;;;;;;;;;;;;5026497;28;20328;-70
2021/10/25 13:47:39;;;;;;;;;;;;;;;;;;5029041;28;19925;-71
2021/10/25 13:50:06;;;;;;;;;;;;;;;;;;5025702;28;19931;-69
2021/10/25 13:52:35;;;;;;;;;;;;;;;;;;5032274;28;20177;-70
2021/10/25 13:55:04;;;;;;;;;;;;;;;;;;5033550;28;20292;-70
2021/10/25 13:57:36;;;;;;;;;;;;;;;;;;5027936;28;19952;-71
2021/10/25 14:00:04;;;;;;;;;;;;;;;;;;5031370;28;19925;-69
2021/10/25 14:02:31;;;;;;;;;;;;;;;;;;5031563;28;19926;-71
2021/10/25 14:04:59;;;;;;;;;;;;;;;;;;5032066;28;19925;-70
2021/10/25 14:07:30;;;;;;;;;;;;;;;;;;5031391;28;19933;-70
2021/10/25 14:10:02;;;;;;;;;;;;;;;;;;5037263;28;19925;-71
2021/10/25 14:12:30;;;;;;;;;;;;;;;;;;5033628;28;19979;-71
2021/10/25 14:15:05;;;;;;;;;;;;;;;;;;5030891;28;19943;-71
2021/10/25 14:17:31;;;;;;;;;;;;;;;;;;5026150;28;19940;-70
2021/10/25 14:19:58;;;;;;;;;;;;;;;;;;5031999;28;20357;-70
2021/10/25 14:22:25;;;;;;;;;;;;;;;;;;5029679;28;19932;-70
2021/10/25 14:24:53;;;;;;;;;;;;;;;;;;5031051;28;20012;-70
2021/10/25 14:27:20;;;;;;;;;;;;;;;;;;5026426;28;20453;-72
2021/10/25 14:29:47;;;;;;;;;;;;;;;;;;5029679;28;19933;-70
2021/10/25 14:32:14;;;;;;;;;;;;;;;;;;5033366;28;19933;-70
2021/10/25 14:34:41;;;;;;;;;;;;;;;;;;5029221;28;19925;-69
2021/10/25 14:37:08;;;;;;;;;;;;;;;;;;5032758;28;19925;-70
2021/10/25 14:39:39;;;;;;;;;;;;;;;;;;5032061;28;19925;-70
2021/10/25 14:42:11;;;;;;;;;;;;;;;;;;5030446;28;19932;-71
2021/10/25 14:44:43;;;;;;;;;;;;;;;;;;5027479;28;19933;-71
2021/10/25 14:47:41;;;;;;;;;;;;;;;;;;5029263;28;20381;-70
2021/10/25 14:55:37;;;;;;;;;;;;;;;;;;5027680;28;19931;-71
2021/10/25 14:58:04;;;;;;;;;;;;;;;;;;5027086;28;19925;-70
2021/10/25 15:00:31;;;;;;;;;;;;;;;;;;5033954;28;19948;-70
2021/10/25 15:02:58;;;;;;;;;;;;;;;;;;5047178;28;19925;-72
2021/10/25 15:05:25;;;;;;;;;;;;;;;;;;5043133;28;19925;-72
2021/10/25 15:07:52;;;;;;;;;;;;;;;;;;5023864;28;19926;-71
2021/10/25 15:10:19;;;;;;;;;;;;;;;;;;5031536;28;19987;-70
2021/10/25 15:12:46;;;;;;;;;;;;;;;;;;5025401;28;19941;-71
2021/10/25 15:15:13;;;;;;;;;;;;;;;;;;5024829;28;19925;-69
2021/10/25 15:17:42;;;;;;;;;;;;;;;;;;5028271;28;19980;-70
2021/10/25 15:20:09;;;;;;;;;;;;;;;;;;5030000;28;19935;-71
2021/10/25 15:22:36;;;;;;;;;;;;;;;;;;5026040;28;19996;-71
2021/10/25 15:25:04;;;;;;;;;;;;;;;;;;5026473;28;19925;-70
2021/10/25 15:27:31;;;;;;;;;;;;;;;;;;5026407;28;19925;-70
2021/10/25 15:29:58;;;;;;;;;;;;;;;;;;5026922;28;19935;-71
2021/10/25 15:32:25;;;;;;;;;;;;;;;;;;5025679;28;19932;-70
2021/10/25 15:34:52;;;;;;;;;;;;;;;;;;5027957;28;20402;-71
2021/10/25 15:37:19;;;;;;;;;;;;;;;;;;5029590;28;20016;-70
2021/10/25 15:39:45;;;;;;;;;;;;;;;;;;5025671;28;19926;-70
2021/10/25 15:42:12;;;;;;;;;;;;;;;;;;5031738;28;19931;-71
2021/10/25 15:44:42;;;;;;;;;;;;;;;;;;5028665;28;19933;-70
2021/10/25 15:47:09;;;;;;;;;;;;;;;;;;5028069;28;20409;-72
2021/10/25 15:49:36;;;;;;;;;;;;;;;;;;5028277;28;20391;-71
2021/10/25 15:52:03;;;;;;;;;;;;;;;;;;5031332;28;20366;-71
2021/10/25 15:54:30;;;;;;;;;;;;;;;;;;5030580;28;20422;-71
2021/10/25 15:56:57;;;;;;;;;;;;;;;;;;5029424;28;19925;-71
2021/10/25 15:59:25;;;;;;;;;;;;;;;;;;5028388;28;20068;-72
2021/10/25 16:01:52;;;;;;;;;;;;;;;;;;5025785;28;19925;-71
2021/10/25 16:04:19;;;;;;;;;;;;;;;;;;5030419;28;19928;-70
2021/10/25 16:06:46;;;;;;;;;;;;;;;;;;5026003;28;19929;-71
2021/10/25 16:09:13;;;;;;;;;;;;;;;;;;5027737;28;20411;-70
2021/10/25 16:11:40;;;;;;;;;;;;;;;;;;5024826;28;19925;-70
2021/10/25 16:14:07;;;;;;;;;;;;;;;;;;5027592;28;20006;-70
2021/10/25 16:16:34;;;;;;;;;;;;;;;;;;5029796;28;20412;-71
2021/10/25 16:19:02;;;;;;;;;;;;;;;;;;5026616;28;20309;-72
2021/10/25 16:21:29;;;;;;;;;;;;;;;;;;5027373;28;20397;-71
2021/10/25 16:23:56;;;;;;;;;;;;;;;;;;5029007;28;20424;-70
2021/10/25 16:26:23;;;;;;;;;;;;;;;;;;5026071;28;20021;-72
2021/10/25 16:28:50;;;;;;;;;;;;;;;;;;5027697;28;19929;-70
2021/10/25 16:31:17;;;;;;;;;;;;;;;;;;5025372;28;19925;-70
2021/10/25 16:33:44;;;;;;;;;;;;;;;;;;5025467;28;19983;-70
2021/10/25 16:36:11;;;;;;;;;;;;;;;;;;5028292;28;19929;-71
2021/10/25 16:38:39;;;;;;;;;;;;;;;;;;5028942;28;20024;-70
2021/10/25 16:41:06;;;;;;;;;;;;;;;;;;5026039;28;19925;-70
2021/10/25 16:43:33;;;;;;;;;;;;;;;;;;5029606;28;19925;-71
2021/10/25 16:46:03;;;;;;;;;;;;;;;;;;5028576;28;20115;-71
2021/10/25 16:48:31;;;;;;;;;;;;;;;;;;5028947;28;19929;-70
2021/10/25 16:51:02;;;;;;;;;;;;;;;;;;5023455;28;20036;-69
2021/10/25 16:53:46;;;;;;;;;;;;;;;;;;5028081;28;19972;-70
2021/10/25 17:04:56;;;;;;;;;;;;;;;;;;5025739;28;19999;-70
2021/10/25 17:10:08;;;;;;;;;;;;;;;;;;5024364;28;20015;-70
2021/10/25 17:12:35;;;;;;;;;;;;;;;;;;5026332;28;19959;-70
2021/10/25 17:15:02;;;;;;;;;;;;;;;;;;5026682;28;19931;-70
2021/10/25 17:17:29;;;;;;;;;;;;;;;;;;5022340;28;21804;-69
2021/10/25 17:19:57;;;;;;;;;;;;;;;;;;5033452;28;20016;-69
2021/10/25 17:22:24;;;;;;;;;;;;;;;;;;5027632;28;19964;-70
2021/10/25 17:24:51;;;;;;;;;;;;;;;;;;5026643;28;19983;-70
2021/10/25 17:27:19;;;;;;;;;;;;;;;;;;5023206;28;20310;-70
2021/10/25 17:29:46;;;;;;;;;;;;;;;;;;5023521;28;19926;-71
2021/10/25 17:32:16;;;;;;;;;;;;;;;;;;5025945;28;19936;-71
2021/10/25 17:34:43;;;;;;;;;;;;;;;;;;5025749;28;19933;-70
2021/10/25 17:37:10;;;;;;;;;;;;;;;;;;5027901;28;20025;-70
2021/10/25 17:39:37;;;;;;;;;;;;;;;;;;5026715;28;20019;-70
2021/10/25 17:42:05;;;;;;;;;;;;;;;;;;5025053;28;20031;-70
2021/10/25 17:44:32;;;;;;;;;;;;;;;;;;5026780;28;19931;-70
2021/10/25 17:46:59;;;;;;;;;;;;;;;;;;5026142;28;19929;-71
2021/10/25 17:49:26;;;;;;;;;;;;;;;;;;5026230;28;19925;-70
2021/10/25 17:51:54;;;;;;;;;;;;;;;;;;5026342;28;20391;-71
2021/10/25 17:54:21;;;;;;;;;;;;;;;;;;5029812;28;19925;-71
2021/10/25 17:56:50;;;;;;;;;;;;;;;;;;5023686;28;19925;-70
2021/10/25 17:59:17;;;;;;;;;;;;;;;;;;5024364;28;19983;-71
2021/10/25 18:01:44;;;;;;;;;;;;;;;;;;5026598;28;20367;-71
2021/10/25 18:04:11;;;;;;;;;;;;;;;;;;5028125;28;19933;-70
2021/10/25 18:06:38;;;;;;;;;;;;;;;;;;5026292;28;19925;-70
2021/10/25 18:09:06;;;;;;;;;;;;;;;;;;5025089;28;19947;-70
2021/10/25 18:11:38;;;;;;;;;;;;;;;;;;5020436;28;19926;-70
2021/10/25 18:14:05;;;;;;;;;;;;;;;;;;5025369;28;19925;-70
2021/10/25 18:16:32;;;;;;;;;;;;;;;;;;5026286;28;20324;-70
2021/10/25 18:18:59;;;;;;;;;;;;;;;;;;5024818;28;19933;-70
2021/10/25 18:21:26;;;;;;;;;;;;;;;;;;5020476;28;19979;-71
2021/10/25 18:23:53;;;;;;;;;;;;;;;;;;5027319;28;19935;-70